Station Historical Data
Daily Summary for January 6, 2017 Units:  Metric    English   Both
Next Day »
Daily Weekly Monthly Yearly Custom
  High: Low: Average:
Temperature: 5.1 °C -0.9 °C 1.9 °C
Dew Point: 3 °C -3.8 °C -0.7 °C
Humidity: 92% 71% 83%
Wind Speed: 25.7km/h 0km/h 4.3km/h
Wind Gust: 35.4km/h - -
Wind- - ESE
Pressure: 1023.9 hPa 1020.5 hPa -
Precipitation: 0 mm    
Historical Graphs
 
 
Tabular Data for January 6, 2017
Time Temperature Dew Point Pressure Wind Wind Speed Wind Gust Humidity Rainfall Rate (Hourly) solar Conditions
00:04 -0.2 °C -2.1 °C 1020.5 hPa Calm   24.1 km/h 87% 0 mm 0.00 W/m2
00:09 -0.2 °C -2.1 °C 1020.5 hPa ESE 9.7 km/h 32.2 km/h 87% 0 mm 0.00 W/m2
00:14 -0.2 °C -2.1 °C 1020.5 hPa ESE 20.9 km/h 20.9 km/h 87% 0 mm 0.00 W/m2
00:19 -0.2 °C -2.1 °C 1020.5 hPa East 14.5 km/h 29 km/h 87% 0 mm 0.00 W/m2
00:25 -0.2 °C -2.1 °C 1020.5 hPa ESE 19.3 km/h 32.2 km/h 87% 0 mm 0.00 W/m2
00:30 -0.2 °C -2.3 °C 1020.5 hPa East 11.3 km/h 24.1 km/h 86% 0 mm 0.00 W/m2
00:35 -0.2 °C -2.3 °C 1020.9 hPa ESE 12.9 km/h 19.3 km/h 86% 0 mm 0.00 W/m2
00:40 -0.2 °C -2.2 °C 1020.9 hPa ESE 14.5 km/h 25.7 km/h 86% 0 mm 0.00 W/m2
00:45 -0.2 °C -2.3 °C 1020.9 hPa Calm   24.1 km/h 86% 0 mm 0.00 W/m2
00:50 -0.2 °C -2.4 °C 1021.2 hPa East 9.7 km/h 24.1 km/h 85% 0 mm 0.00 W/m2
00:55 -0.2 °C -1.4 °C 1020.9 hPa ESE 17.7 km/h 29 km/h 92% 0 mm 0.00 W/m2
01:00 -0.2 °C -2.4 °C 1020.9 hPa ESE 8 km/h 25.7 km/h 85% 0 mm 0.00 W/m2
01:05 -0.2 °C -2.6 °C 1020.9 hPa ESE 3.2 km/h 25.7 km/h 84% 0 mm 0.00 W/m2
01:10 -0.2 °C -2.6 °C 1020.9 hPa East 12.9 km/h 24.1 km/h 84% 0 mm 0.00 W/m2
01:15 -0.2 °C -2.4 °C 1021.2 hPa East 22.5 km/h 33.8 km/h 85% 0 mm 0.00 W/m2
01:20 -0.2 °C -2.4 °C 1021.2 hPa East 17.7 km/h 30.6 km/h 85% 0 mm 0.00 W/m2
01:25 -0.2 °C -2.6 °C 1020.9 hPa ESE 8 km/h 29 km/h 84% 0 mm 0.00 W/m2
01:30 -0.2 °C -2.6 °C 1020.9 hPa ESE 9.7 km/h 29 km/h 84% 0 mm 0.00 W/m2
01:35 -0.2 °C -2.6 °C 1021.2 hPa ESE 1.6 km/h 29 km/h 84% 0 mm 0.00 W/m2
01:40 -0.2 °C -2.6 °C 1021.2 hPa ESE 11.3 km/h 29 km/h 84% 0 mm 0.00 W/m2
01:45 -0.1 °C -2.7 °C 1021.2 hPa East 12.9 km/h 30.6 km/h 83% 0 mm 0.00 W/m2
01:50 -0.2 °C -2.7 °C 1021.2 hPa ESE 19.3 km/h 30.6 km/h 83% 0 mm 0.00 W/m2
01:55 -0.2 °C -2.7 °C 1021.2 hPa ESE 12.9 km/h 32.2 km/h 83% 0 mm 0.00 W/m2
02:00 -0.2 °C -2.9 °C 1021.2 hPa East 9.7 km/h 35.4 km/h 82% 0 mm 0.00 W/m2
02:05 -0.2 °C -2.9 °C 1021.6 hPa East 8 km/h 32.2 km/h 82% 0 mm 0.00 W/m2
02:10 -0.2 °C -2.9 °C 1021.6 hPa East 20.9 km/h 33.8 km/h 82% 0 mm 0.00 W/m2
02:15 -0.2 °C -2.9 °C 1021.6 hPa East 17.7 km/h 24.1 km/h 82% 0 mm 0.00 W/m2
02:20 -0.2 °C -2.9 °C 1021.6 hPa East 11.3 km/h 29 km/h 82% 0 mm 0.00 W/m2
02:25 -0.2 °C -2.9 °C 1021.6 hPa East 11.3 km/h 32.2 km/h 82% 0 mm 0.00 W/m2
02:30 -0.2 °C -2.9 °C 1021.6 hPa East 9.7 km/h 25.7 km/h 82% 0 mm 0.00 W/m2
02:35 -0.2 °C -2.8 °C 1021.6 hPa East 11.3 km/h 25.7 km/h 83% 0 mm 0.00 W/m2
02:40 -0.3 °C -2.8 °C 1021.6 hPa East 19.3 km/h 24.1 km/h 83% 0 mm 0.00 W/m2
02:45 -0.3 °C -3 °C 1021.6 hPa East 9.7 km/h 25.7 km/h 82% 0 mm 0.00 W/m2
02:50 -0.3 °C -2.9 °C 1021.6 hPa East 9.7 km/h 25.7 km/h 83% 0 mm 0.00 W/m2
02:55 -0.3 °C -2.9 °C 1021.6 hPa ESE 8 km/h 24.1 km/h 83% 0 mm 0.00 W/m2
03:00 -0.3 °C -2.9 °C 1021.2 hPa ESE 8 km/h 29 km/h 83% 0 mm 0.00 W/m2
03:05 -0.4 °C -2.9 °C 1021.2 hPa ESE 3.2 km/h 30.6 km/h 83% 0 mm 0.00 W/m2
03:10 -0.4 °C -3.1 °C 1021.2 hPa East 3.2 km/h 30.6 km/h 82% 0 mm 0.00 W/m2
03:16 -0.4 °C -3.2 °C 1021.2 hPa East 4.8 km/h 29 km/h 81% 0 mm 0.00 W/m2
03:21 -0.4 °C -3.2 °C 1021.2 hPa East 11.3 km/h 29 km/h 81% 0 mm 0.00 W/m2
03:26 -0.3 °C -3.2 °C 1021.2 hPa East 12.9 km/h 30.6 km/h 81% 0 mm 0.00 W/m2
03:31 -0.3 °C -3.2 °C 1021.2 hPa ENE 11.3 km/h 29 km/h 81% 0 mm 0.00 W/m2
03:36 -0.3 °C -3.2 °C 1020.9 hPa ESE 20.9 km/h 33.8 km/h 81% 0 mm 0.00 W/m2
03:41 -0.4 °C -3.1 °C 1020.9 hPa East 11.3 km/h 29 km/h 82% 0 mm 0.00 W/m2
03:46 -0.4 °C -3.2 °C 1020.9 hPa East 12.9 km/h 29 km/h 81% 0 mm 0.00 W/m2
03:51 -0.4 °C -3.3 °C 1020.9 hPa East 8 km/h 24.1 km/h 81% 0 mm 0.00 W/m2
03:56 -0.4 °C -3.4 °C 1020.9 hPa East 12.9 km/h 24.1 km/h 80% 0 mm 0.00 W/m2
04:01 -0.4 °C -3.3 °C 1020.9 hPa ESE 22.5 km/h 22.5 km/h 81% 0 mm 0.00 W/m2
04:06 -0.4 °C -3.3 °C 1020.9 hPa Calm   22.5 km/h 81% 0 mm 0.00 W/m2
04:11 -0.4 °C -3.3 °C 1020.9 hPa East 3.2 km/h 24.1 km/h 81% 0 mm 0.00 W/m2
04:16 -0.5 °C -3.2 °C 1020.9 hPa East 17.7 km/h 25.7 km/h 82% 0 mm 0.00 W/m2
04:21 -0.5 °C -3.2 °C 1020.9 hPa East 9.7 km/h 24.1 km/h 82% 0 mm 0.00 W/m2
04:26 -0.6 °C -3.2 °C 1020.9 hPa East 9.7 km/h 25.7 km/h 82% 0 mm 0.00 W/m2
04:31 -0.6 °C -3.4 °C 1020.9 hPa East 9.7 km/h 20.9 km/h 81% 0 mm 0.00 W/m2
04:36 -0.6 °C -3.3 °C 1020.9 hPa East 12.9 km/h 19.3 km/h 82% 0 mm 0.00 W/m2
04:41 -0.6 °C -3.1 °C 1020.9 hPa East 4.8 km/h 22.5 km/h 83% 0 mm 0.00 W/m2
04:46 -0.7 °C -3.2 °C 1021.2 hPa East 11.3 km/h 22.5 km/h 83% 0 mm 0.00 W/m2
04:51 -0.7 °C -3.3 °C 1021.2 hPa Calm     82% 0 mm 0.00 W/m2
04:56 -0.7 °C -3.4 °C 1021.2 hPa East 8 km/h 8 km/h 82% 0 mm 0.00 W/m2
05:01 -0.7 °C -3.4 °C 1021.2 hPa Calm     82% 0 mm 0.00 W/m2
05:06 -0.7 °C -3.2 °C 1021.2 hPa Calm   1.6 km/h 83% 0 mm 0.00 W/m2
05:11 -0.7 °C -3.2 °C 1021.2 hPa East 9.7 km/h 12.9 km/h 83% 0 mm 0.00 W/m2
05:16 -0.8 °C -3.3 °C 1021.2 hPa Calm   1.6 km/h 83% 0 mm 0.00 W/m2
05:21 -0.8 °C -3.3 °C 1021.2 hPa ESE 3.2 km/h 12.9 km/h 83% 0 mm 0.00 W/m2
05:26 -0.8 °C -3.5 °C 1021.2 hPa East 6.4 km/h 12.9 km/h 82% 0 mm 0.00 W/m2
05:31 -0.8 °C -3.3 °C 1021.2 hPa East 8 km/h 9.7 km/h 83% 0 mm 0.00 W/m2
05:36 -0.8 °C -3.5 °C 1021.2 hPa East 8 km/h 12.9 km/h 82% 0 mm 0.00 W/m2
05:41 -0.9 °C -3.7 °C 1021.2 hPa East 9.7 km/h 19.3 km/h 81% 0 mm 0.00 W/m2
05:46 -0.8 °C -3.5 °C 1021.2 hPa ESE 12.9 km/h 20.9 km/h 82% 0 mm 0.00 W/m2
05:51 -0.8 °C -3.5 °C 1020.9 hPa ESE 8 km/h 12.9 km/h 82% 0 mm 0.00 W/m2
05:56 -0.8 °C -3.5 °C 1020.9 hPa ESE 3.2 km/h 12.9 km/h 82% 0 mm 0.00 W/m2
06:01 -0.8 °C -3.7 °C 1020.9 hPa East 9.7 km/h 22.5 km/h 81% 0 mm 0.00 W/m2
06:06 -0.8 °C -3.7 °C 1021.2 hPa East 17.7 km/h 19.3 km/h 81% 0 mm 0.00 W/m2
06:11 -0.8 °C -3.7 °C 1021.2 hPa East 8 km/h 12.9 km/h 81% 0 mm 0.00 W/m2
06:16 -0.8 °C -3.8 °C 1021.2 hPa East 12.9 km/h 12.9 km/h 80% 0 mm 0.00 W/m2
06:21 -0.8 °C -3.8 °C 1021.2 hPa East 8 km/h 9.7 km/h 80% 0 mm 0.00 W/m2
06:26 -0.8 °C -3.4 °C 1021.6 hPa ESE 6.4 km/h 11.3 km/h 82% 0 mm 0.00 W/m2
06:31 -0.8 °C -3.7 °C 1021.2 hPa ESE 1.6 km/h 1.6 km/h 81% 0 mm 0.00 W/m2
06:36 -0.8 °C -3.5 °C 1021.2 hPa ESE 12.9 km/h 12.9 km/h 82% 0 mm 0.00 W/m2
06:41 -0.8 °C -3.3 °C 1021.2 hPa Calm   3.2 km/h 83% 0 mm 0.00 W/m2
06:46 -0.8 °C -3.5 °C 1021.6 hPa ESE 6.4 km/h 8 km/h 82% 0 mm 0.00 W/m2
06:51 -0.9 °C -3.6 °C 1021.6 hPa ESE 12.9 km/h 14.5 km/h 82% 0 mm 0.00 W/m2
06:56 -0.9 °C -3.4 °C 1021.9 hPa East 9.7 km/h 12.9 km/h 83% 0 mm 0.00 W/m2
07:01 -0.9 °C -3.4 °C 1021.6 hPa East 1.6 km/h 12.9 km/h 83% 0 mm 0.00 W/m2
07:06 -0.9 °C -3.4 °C 1021.6 hPa ESE 6.4 km/h 17.7 km/h 83% 0 mm 0.00 W/m2
07:11 -0.9 °C -3.3 °C 1021.6 hPa ESE 6.4 km/h 17.7 km/h 84% 0 mm 5.00 W/m2
07:16 -0.9 °C -3.3 °C 1021.9 hPa ESE 11.3 km/h 14.5 km/h 84% 0 mm 9.00 W/m2
07:21 -0.9 °C -3.4 °C 1021.9 hPa ESE 6.4 km/h 19.3 km/h 83% 0 mm 7.00 W/m2
07:27 -0.9 °C -3.6 °C 1021.9 hPa Calm   1.6 km/h 82% 0 mm 7.00 W/m2
07:32 -0.9 °C -3.4 °C 1021.9 hPa East 1.6 km/h 14.5 km/h 83% 0 mm 11.00 W/m2
07:37 -0.8 °C -3.5 °C 1021.9 hPa East 19.3 km/h 19.3 km/h 82% 0 mm 14.00 W/m2
07:42 -0.8 °C -3.5 °C 1022.2 hPa ESE 6.4 km/h 17.7 km/h 82% 0 mm 18.00 W/m2
07:47 -0.8 °C -3.4 °C 1022.2 hPa Calm   19.3 km/h 82% 0 mm 23.00 W/m2
07:52 -0.8 °C -3.6 °C 1021.9 hPa East 6.4 km/h 24.1 km/h 81% 0 mm 28.00 W/m2
07:57 -0.8 °C -3.6 °C 1022.2 hPa East 8 km/h 11.3 km/h 81% 0 mm 35.00 W/m2
08:02 -0.7 °C -3.7 °C 1022.2 hPa ESE 14.5 km/h 14.5 km/h 80% 0 mm 37.00 W/m2
08:07 -0.7 °C -3.8 °C 1022.2 hPa ESE 11.3 km/h 20.9 km/h 79% 0 mm 39.00 W/m2
08:12 -0.7 °C -3.7 °C 1022.2 hPa East 25.7 km/h 29 km/h 80% 0 mm 65.00 W/m2
08:17 -0.6 °C -3.6 °C 1022.6 hPa Calm   19.3 km/h 80% 0 mm 77.00 W/m2
08:22 -0.5 °C -3.7 °C 1022.6 hPa East 12.9 km/h 24.1 km/h 79% 0 mm 88.00 W/m2
08:27 -0.4 °C -3.6 °C 1022.6 hPa East 20.9 km/h 20.9 km/h 79% 0 mm 107.00 W/m2
08:32 -0.4 °C -3.6 °C 1022.6 hPa East 3.2 km/h 17.7 km/h 79% 0 mm 88.00 W/m2
08:37 -0.3 °C -3.6 °C 1022.6 hPa East 12.9 km/h 20.9 km/h 79% 0 mm 67.00 W/m2
08:42 -0.3 °C -3.7 °C 1022.6 hPa ESE 14.5 km/h 29 km/h 78% 0 mm 104.00 W/m2
08:47 -0.2 °C -3.4 °C 1022.6 hPa East 9.7 km/h 22.5 km/h 79% 0 mm 107.00 W/m2
08:52 -0.2 °C -3.2 °C 1022.6 hPa ESE 25.7 km/h 25.7 km/h 80% 0 mm 162.00 W/m2
08:57 -0.1 °C -3.3 °C 1022.6 hPa East 1.6 km/h 20.9 km/h 79% 0 mm 130.00 W/m2
09:02 -0.1 °C -3.3 °C 1022.6 hPa East 12.9 km/h 19.3 km/h 79% 0 mm 144.00 W/m2
09:07 -0.1 °C -3.3 °C 1022.9 hPa East 19.3 km/h 19.3 km/h 79% 0 mm 134.00 W/m2
09:12 0 °C -3.1 °C 1022.9 hPa East 8 km/h 19.3 km/h 80% 0 mm 139.00 W/m2
09:17 0.1 °C -3.3 °C 1022.9 hPa East 17.7 km/h 19.3 km/h 78% 0 mm 160.00 W/m2
09:22 0.1 °C -3.2 °C 1022.9 hPa Calm   1.6 km/h 79% 0 mm 204.00 W/m2
09:27 0.2 °C -2.9 °C 1023.2 hPa Calm   1.6 km/h 80% 0 mm 158.00 W/m2
09:32 0.2 °C -2.8 °C 1022.9 hPa Calm   1.6 km/h 80% 0 mm 183.00 W/m2
09:37 0.3 °C -2.8 °C 1022.9 hPa Calm   1.6 km/h 80% 0 mm 111.00 W/m2
09:42 0.3 °C -2.7 °C 1022.9 hPa Calm   17.7 km/h 80% 0 mm 178.00 W/m2
09:47 0.4 °C -2.7 °C 1022.9 hPa Calm   17.7 km/h 80% 0 mm 199.00 W/m2
09:52 0.4 °C -2.4 °C 1023.2 hPa Calm   1.6 km/h 81% 0 mm 185.00 W/m2
09:57 0.6 °C -2.8 °C 1023.2 hPa Calm   20.9 km/h 78% 0 mm 167.00 W/m2
10:02 0.6 °C -2.8 °C 1023.2 hPa Calm   1.6 km/h 78% 0 mm 142.00 W/m2
10:07 0.7 °C -2.6 °C 1023.2 hPa Calm   1.6 km/h 79% 0 mm 190.00 W/m2
10:12 0.8 °C -2.4 °C 1023.2 hPa Calm   1.6 km/h 79% 0 mm 149.00 W/m2
10:17 0.8 °C -2.4 °C 1023.6 hPa Calm   1.6 km/h 79% 0 mm 418.00 W/m2
10:22 0.9 °C -2.1 °C 1023.6 hPa Calm   1.6 km/h 80% 0 mm 446.00 W/m2
10:27 1 °C -2.1 °C 1023.9 hPa Calm     80% 0 mm 339.00 W/m2
10:32 1.2 °C -1.9 °C 1023.9 hPa East 1.6 km/h 1.6 km/h 80% 0 mm 346.00 W/m2
10:37 1.2 °C -1.7 °C 1023.9 hPa Calm   1.6 km/h 81% 0 mm 401.00 W/m2
10:42 1.4 °C -1.8 °C 1023.9 hPa Calm   1.6 km/h 79% 0 mm 387.00 W/m2
10:47 1.6 °C -1.8 °C 1023.9 hPa ESE 1.6 km/h 1.6 km/h 78% 0 mm 341.00 W/m2
10:52 1.8 °C -1.8 °C 1023.9 hPa ESE 1.6 km/h 1.6 km/h 77% 0 mm 360.00 W/m2
10:57 2 °C -1.1 °C 1023.9 hPa Calm   1.6 km/h 80% 0 mm 373.00 W/m2
11:02 2.2 °C -0.9 °C 1023.9 hPa Calm     80% 0 mm 334.00 W/m2
11:07 2.3 °C -0.8 °C 1023.9 hPa Calm     80% 0 mm 364.00 W/m2
11:12 2.5 °C -1.3 °C 1023.9 hPa Calm     76% 0 mm 538.00 W/m2
11:17 2.7 °C -1.1 °C 1023.9 hPa Calm     76% 0 mm 499.00 W/m2
11:22 2.9 °C -1.4 °C 1023.9 hPa Calm     73% 0 mm 545.00 W/m2
11:27 3.1 °C -1.3 °C 1023.9 hPa SE 1.6 km/h 1.6 km/h 73% 0 mm 301.00 W/m2
11:32 3.2 °C -1.4 °C 1023.6 hPa Calm   1.6 km/h 72% 0 mm 541.00 W/m2
11:37 3.4 °C -0.8 °C 1023.6 hPa Calm   14.5 km/h 74% 0 mm 452.00 W/m2
11:42 3.6 °C -0.6 °C 1023.6 hPa Calm   1.6 km/h 74% 0 mm 541.00 W/m2
11:48 3.7 °C -0.3 °C 1023.6 hPa SSW 1.6 km/h 1.6 km/h 75% 0 mm 401.00 W/m2
11:53 3.8 °C -0.2 °C 1023.2 hPa SE 6.4 km/h 19.3 km/h 75% 0 mm 236.00 W/m2
11:58 3.9 °C -0.1 °C 1023.2 hPa South 1.6 km/h 3.2 km/h 75% 0 mm 635.00 W/m2
12:03 4 °C -0.2 °C 1023.2 hPa Calm   1.6 km/h 74% 0 mm 499.00 W/m2
12:08 4.1 °C 0.4 °C 1023.2 hPa Calm   1.6 km/h 77% 0 mm 575.00 W/m2
12:13 4.1 °C 0.4 °C 1022.9 hPa Calm   14.5 km/h 77% 0 mm 568.00 W/m2
12:18 4.1 °C 0.4 °C 1022.9 hPa Calm   1.6 km/h 77% 0 mm 601.00 W/m2
12:23 4.2 °C 0.1 °C 1022.9 hPa SSE 14.5 km/h 17.7 km/h 75% 0 mm 589.00 W/m2
12:28 4.3 °C 0.1 °C 1022.6 hPa SSE 1.6 km/h 8 km/h 74% 0 mm 485.00 W/m2
12:33 4.3 °C 0.1 °C 1022.6 hPa Calm   1.6 km/h 74% 0 mm 490.00 W/m2
12:38 4.3 °C 0.1 °C 1022.6 hPa SSE 6.4 km/h 20.9 km/h 74% 0 mm 571.00 W/m2
12:43 4.4 °C 0.1 °C 1022.6 hPa SSE 14.5 km/h 17.7 km/h 73% 0 mm 455.00 W/m2
12:48 4.5 °C -0.1 °C 1022.6 hPa SE 9.7 km/h 14.5 km/h 72% 0 mm 308.00 W/m2
12:53 4.6 °C 0.3 °C 1022.6 hPa South 12.9 km/h 17.7 km/h 74% 0 mm 603.00 W/m2
12:58 4.6 °C 0.2 °C 1022.2 hPa Calm   1.6 km/h 73% 0 mm 547.00 W/m2
13:03 4.7 °C 0.1 °C 1022.2 hPa SE 9.7 km/h 9.7 km/h 72% 0 mm 529.00 W/m2
13:08 4.8 °C 0.3 °C 1022.2 hPa ESE 17.7 km/h 17.7 km/h 73% 0 mm 538.00 W/m2
13:13 4.8 °C 0.6 °C 1022.2 hPa SSE 11.3 km/h 16.1 km/h 74% 0 mm 561.00 W/m2
13:18 4.8 °C 0.2 °C 1022.2 hPa South 1.6 km/h 1.6 km/h 72% 0 mm 185.00 W/m2
13:23 4.8 °C 0 °C 1022.2 hPa Calm   1.6 km/h 71% 0 mm 172.00 W/m2
13:28 4.9 °C 0.3 °C 1022.2 hPa Calm   1.6 km/h 72% 0 mm 255.00 W/m2
13:29 4.9 °C 0.3 °C 1022.2 hPa Calm   1.6 km/h 72% 0 mm 214.00 W/m2
13:34 4.9 °C 0.4 °C 1021.9 hPa Calm   1.6 km/h 73% 0 mm 223.00 W/m2
13:39 4.9 °C 0.7 °C 1021.6 hPa Calm   1.6 km/h 74% 0 mm 265.00 W/m2
13:44 4.8 °C 0.4 °C 1021.6 hPa Calm   1.6 km/h 73% 0 mm 306.00 W/m2
13:49 4.8 °C 0.6 °C 1021.6 hPa Calm     74% 0 mm 466.00 W/m2
13:54 4.8 °C 0.8 °C 1021.6 hPa South 1.6 km/h 1.6 km/h 75% 0 mm 441.00 W/m2
13:59 4.8 °C 0.4 °C 1021.6 hPa Calm   1.6 km/h 73% 0 mm 427.00 W/m2
14:04 4.9 °C 0.3 °C 1021.2 hPa South 1.6 km/h 1.6 km/h 72% 0 mm 422.00 W/m2
14:09 4.9 °C 0.3 °C 1021.2 hPa Calm   1.6 km/h 72% 0 mm 408.00 W/m2
14:14 5 °C 0.6 °C 1021.2 hPa Calm   1.6 km/h 73% 0 mm 313.00 W/m2
14:19 5.1 °C 0.6 °C 1020.9 hPa Calm     73% 0 mm 348.00 W/m2
14:24 5.1 °C 0.6 °C 1020.9 hPa Calm   1.6 km/h 73% 0 mm 292.00 W/m2
14:29 5.1 °C 0.8 °C 1020.9 hPa Calm     74% 0 mm 250.00 W/m2
14:34 5.1 °C 1 °C 1020.9 hPa Calm     75% 0 mm 127.00 W/m2
14:39 5.1 °C 1 °C 1020.9 hPa Calm     75% 0 mm 149.00 W/m2
14:44 5.1 °C 1.2 °C 1020.9 hPa Calm     76% 0 mm 162.00 W/m2
14:49 5.1 °C 1 °C 1020.9 hPa Calm     75% 0 mm 149.00 W/m2
14:54 5 °C 1.1 °C 1020.9 hPa Calm     76% 0 mm 134.00 W/m2
14:59 5 °C 1.3 °C 1021.2 hPa Calm     77% 0 mm 116.00 W/m2
15:04 5.1 °C 1.6 °C 1021.2 hPa Calm     78% 0 mm 111.00 W/m2
15:09 5 °C 1.3 °C 1021.2 hPa Calm     77% 0 mm 100.00 W/m2
15:14 5 °C 0.9 °C 1021.6 hPa Calm     75% 0 mm 107.00 W/m2
15:19 5 °C 1.5 °C 1021.6 hPa Calm     78% 0 mm 102.00 W/m2
15:24 5 °C 2 °C 1021.2 hPa Calm     81% 0 mm 90.00 W/m2
15:29 4.9 °C 1.9 °C 1021.2 hPa Calm     81% 0 mm 79.00 W/m2
15:34 4.8 °C 2 °C 1020.9 hPa Calm     82% 0 mm 67.00 W/m2
15:39 4.7 °C 1.9 °C 1020.9 hPa Calm     82% 0 mm 60.00 W/m2
15:44 4.6 °C 1.8 °C 1021.2 hPa Calm     82% 0 mm 63.00 W/m2
15:49 4.6 °C 2.1 °C 1021.2 hPa Calm     84% 0 mm 69.00 W/m2
15:54 4.4 °C 2 °C 1021.6 hPa Calm     84% 0 mm 67.00 W/m2
15:59 4.3 °C 1.9 °C 1021.6 hPa Calm     84% 0 mm 53.00 W/m2
16:04 4.3 °C 2.1 °C 1021.2 hPa Calm     85% 0 mm 46.00 W/m2
16:09 4.3 °C 2.2 °C 1021.2 hPa Calm     86% 0 mm 39.00 W/m2
16:14 4.2 °C 2.1 °C 1021.2 hPa Calm     86% 0 mm 33.00 W/m2
16:19 4.2 °C 3 °C 1021.6 hPa Calm     92% 0 mm 26.00 W/m2
16:24 4.1 °C 2.3 °C 1021.6 hPa Calm     88% 0 mm 21.00 W/m2
16:29 4.1 °C 2.2 °C 1021.6 hPa Calm     88% 0 mm 14.00 W/m2
16:34 3.9 °C 2.1 °C 1021.2 hPa Calm     88% 0 mm 12.00 W/m2
16:39 3.9 °C 2.2 °C 1021.2 hPa Calm     89% 0 mm 14.00 W/m2
16:44 3.8 °C 2.1 °C 1021.2 hPa Calm     88% 0 mm 12.00 W/m2
16:49 3.8 °C 2 °C 1021.2 hPa Calm     88% 0 mm 7.00 W/m2
16:54 3.8 °C 2 °C 1021.6 hPa Calm     88% 0 mm 0.00 W/m2
16:59 3.7 °C 2.1 °C 1021.6 hPa Calm     89% 0 mm 0.00 W/m2
17:04 3.7 °C 2.1 °C 1021.6 hPa Calm     89% 0 mm 0.00 W/m2
17:09 3.7 °C 2 °C 1021.6 hPa Calm     89% 0 mm 0.00 W/m2
17:14 3.7 °C 2 °C 1021.9 hPa Calm     89% 0 mm 0.00 W/m2
17:19 3.6 °C 1.9 °C 1021.6 hPa Calm     89% 0 mm 0.00 W/m2
17:24 3.5 °C 1.8 °C 1021.6 hPa Calm     89% 0 mm 0.00 W/m2
17:29 3.4 °C 1.8 °C 1021.6 hPa Calm     89% 0 mm 0.00 W/m2
17:34 3.3 °C 1.7 °C 1021.6 hPa Calm     89% 0 mm 0.00 W/m2
17:39 3.3 °C 1.7 °C 1021.6 hPa Calm     89% 0 mm 0.00 W/m2
17:44 3.3 °C 1.7 °C 1021.6 hPa Calm     89% 0 mm 0.00 W/m2
17:49 3.3 °C 1.8 °C 1021.6 hPa Calm     90% 0 mm 0.00 W/m2
17:54 3.3 °C 1.8 °C 1021.6 hPa Calm     90% 0 mm 0.00 W/m2
17:59 3.3 °C 1.8 °C 1021.6 hPa Calm     90% 0 mm 0.00 W/m2
18:05 3.3 °C 1.8 °C 1021.9 hPa Calm     90% 0 mm 0.00 W/m2
18:10 3.2 °C 1.7 °C 1021.9 hPa Calm     90% 0 mm 0.00 W/m2
18:15 3.2 °C 1.7 °C 1021.9 hPa Calm     90% 0 mm 0.00 W/m2
18:20 3.2 °C 1.7 °C 1021.9 hPa Calm     90% 0 mm 0.00 W/m2
18:25 3.2 °C 1.7 °C 1021.9 hPa Calm     90% 0 mm 0.00 W/m2
18:30 3.2 °C 1.7 °C 1021.9 hPa Calm     90% 0 mm 0.00 W/m2
18:35 3.2 °C 1.7 °C 1021.9 hPa Calm     90% 0 mm 0.00 W/m2
18:40 3.1 °C 1.6 °C 1021.6 hPa Calm     90% 0 mm 0.00 W/m2
18:45 3.1 °C 1.6 °C 1021.6 hPa Calm     90% 0 mm 0.00 W/m2
18:50 3.1 °C 1.7 °C 1021.6 hPa Calm     91% 0 mm 0.00 W/m2
18:55 3.1 °C 1.7 °C 1021.6 hPa Calm     91% 0 mm 0.00 W/m2
19:00 3 °C 1.5 °C 1021.6 hPa Calm     90% 0 mm 0.00 W/m2
19:05 3 °C 1.5 °C 1021.6 hPa Calm     90% 0 mm 0.00 W/m2
19:10 2.9 °C 1.4 °C 1021.2 hPa Calm     90% 0 mm 0.00 W/m2
19:15 2.9 °C 1.4 °C 1021.2 hPa Calm     90% 0 mm 0.00 W/m2
19:20 2.9 °C 1.6 °C 1021.2 hPa Calm     91% 0 mm 0.00 W/m2
19:25 2.8 °C 1.5 °C 1021.2 hPa Calm     91% 0 mm 0.00 W/m2
19:30 2.8 °C 1.5 °C 1020.9 hPa Calm     91% 0 mm 0.00 W/m2
19:35 2.8 °C 1.5 °C 1020.9 hPa Calm     91% 0 mm 0.00 W/m2
19:40 2.8 °C 1.4 °C 1021.2 hPa Calm     91% 0 mm 0.00 W/m2
19:45 2.8 °C 1.4 °C 1021.2 hPa Calm     91% 0 mm 0.00 W/m2
19:50 2.7 °C 1.4 °C 1021.2 hPa Calm     91% 0 mm 0.00 W/m2
19:55 2.7 °C 1.4 °C 1021.2 hPa Calm   12.9 km/h 91% 0 mm 0.00 W/m2
20:00 2.7 °C 1.4 °C 1020.9 hPa Calm   1.6 km/h 91% 0 mm 0.00 W/m2
20:05 2.7 °C 1.4 °C 1020.9 hPa Calm   1.6 km/h 91% 0 mm 0.00 W/m2
20:10 2.7 °C 1.2 °C 1020.9 hPa Calm   1.6 km/h 90% 0 mm 0.00 W/m2
20:15 2.7 °C 1.2 °C 1020.9 hPa Calm   1.6 km/h 90% 0 mm 0.00 W/m2
20:20 2.7 °C 1.2 °C 1020.9 hPa Calm   1.6 km/h 90% 0 mm 0.00 W/m2
20:25 2.7 °C 1.2 °C 1020.9 hPa Calm   1.6 km/h 90% 0 mm 0.00 W/m2
20:30 2.7 °C 1.2 °C 1020.9 hPa Calm   1.6 km/h 90% 0 mm 0.00 W/m2
20:35 2.8 °C 1.3 °C 1020.5 hPa Calm   1.6 km/h 90% 0 mm 0.00 W/m2
20:40 2.8 °C 1.3 °C 1020.5 hPa Calm   1.6 km/h 90% 0 mm 0.00 W/m2
20:45 2.8 °C 1.3 °C 1020.5 hPa Calm   1.6 km/h 90% 0 mm 0.00 W/m2
20:50 2.8 °C 1.3 °C 1020.9 hPa Calm   1.6 km/h 90% 0 mm 0.00 W/m2
20:55 2.8 °C 1.3 °C 1020.9 hPa Calm   1.6 km/h 90% 0 mm 0.00 W/m2
21:00 2.8 °C 1.3 °C 1020.9 hPa Calm   1.6 km/h 90% 0 mm 0.00 W/m2
21:05 2.9 °C 1.3 °C 1020.9 hPa Calm   1.6 km/h 89% 0 mm 0.00 W/m2
21:10 2.9 °C 1.3 °C 1020.9 hPa Calm   1.6 km/h 89% 0 mm 0.00 W/m2
21:15 2.9 °C 1.3 °C 1020.9 hPa Calm   1.6 km/h 89% 0 mm 0.00 W/m2
21:20 2.9 °C 1.3 °C 1020.9 hPa Calm   1.6 km/h 89% 0 mm 0.00 W/m2
21:25 3 °C 1.4 °C 1020.9 hPa Calm   1.6 km/h 89% 0 mm 0.00 W/m2
21:30 3.1 °C 1.4 °C 1020.9 hPa Calm   1.6 km/h 89% 0 mm 0.00 W/m2
21:35 3.1 °C 1.5 °C 1020.9 hPa Calm   1.6 km/h 89% 0 mm 0.00 W/m2
21:40 3.1 °C 1.6 °C 1020.9 hPa Calm   1.6 km/h 90% 0 mm 0.00 W/m2
21:45 3.1 °C 1.5 °C 1020.9 hPa Calm   1.6 km/h 89% 0 mm 0.00 W/m2
21:50 3.1 °C 1.6 °C 1020.9 hPa Calm   1.6 km/h 90% 0 mm 0.00 W/m2
21:56 3.1 °C 1.6 °C 1021.2 hPa Calm   1.6 km/h 90% 0 mm 0.00 W/m2
22:01 3.1 °C 1.6 °C 1020.9 hPa Calm   1.6 km/h 90% 0 mm 0.00 W/m2
22:06 3.1 °C 1.6 °C 1020.9 hPa Calm   1.6 km/h 90% 0 mm 0.00 W/m2
22:11 3.1 °C 1.6 °C 1020.9 hPa Calm   1.6 km/h 90% 0 mm 0.00 W/m2
22:16 3.1 °C 1.5 °C 1020.9 hPa Calm     89% 0 mm 0.00 W/m2
22:21 3.1 °C 1.5 °C 1020.9 hPa Calm   1.6 km/h 89% 0 mm 0.00 W/m2
22:26 3.2 °C 1.6 °C 1020.9 hPa Calm   1.6 km/h 89% 0 mm 0.00 W/m2
22:32 3.2 °C 1.6 °C 1021.2 hPa Calm   1.6 km/h 89% 0 mm 0.00 W/m2
22:36 3.2 °C 1.7 °C 1021.2 hPa Calm   1.6 km/h 90% 0 mm 0.00 W/m2
22:41 3.2 °C 1.7 °C 1021.2 hPa Calm     90% 0 mm 0.00 W/m2
22:47 3.2 °C 1.7 °C 1021.2 hPa Calm     90% 0 mm 0.00 W/m2
22:52 3.3 °C 1.8 °C 1021.2 hPa Calm   1.6 km/h 90% 0 mm 0.00 W/m2
22:57 3.3 °C 1.8 °C 1021.2 hPa Calm   1.6 km/h 90% 0 mm 0.00 W/m2
23:02 3.3 °C 1.7 °C 1021.6 hPa Calm   1.6 km/h 89% 0 mm 0.00 W/m2
23:07 3.3 °C 1.7 °C 1021.6 hPa Calm   1.6 km/h 89% 0 mm 0.00 W/m2
23:12 3.3 °C 1.7 °C 1021.6 hPa Calm     89% 0 mm 0.00 W/m2
23:17 3.4 °C 1.8 °C 1021.6 hPa Calm     89% 0 mm 0.00 W/m2
23:22 3.4 °C 1.8 °C 1021.6 hPa Calm     89% 0 mm 0.00 W/m2
23:27 3.4 °C 1.8 °C 1021.6 hPa Calm   1.6 km/h 89% 0 mm 0.00 W/m2
23:32 3.4 °C 1.8 °C 1021.9 hPa Calm   1.6 km/h 89% 0 mm 0.00 W/m2
23:37 3.4 °C 1.9 °C 1021.6 hPa Calm   1.6 km/h 90% 0 mm 0.00 W/m2
23:42 3.4 °C 1.9 °C 1021.6 hPa Calm     90% 0 mm 0.00 W/m2
23:47 3.4 °C 1.9 °C 1021.9 hPa Calm     90% 0 mm 0.00 W/m2
23:52 3.4 °C 1.9 °C 1021.6 hPa Calm     90% 0 mm 0.00 W/m2
23:57 3.3 °C 1.8 °C 1021.2 hPa Calm     90% 0 mm 0.00 W/m2
Foresthill Weather
 WU-history PHP script courtesy of   Juneau County Weather.
powered by Cumulus v1.9.3 (1059)
Ambient Weather VWS v14.00
Top Contact Website Map Copyright © 2007 - 2018 Foresthillweather.com Never base important decisions on this or any weather information obtained from the Internet